Terminal Aerodrome Forecast
Issued by NWS

Home | Current Version | Previous Version | Text Only | Print | Product List | Glossary On
Versions: 1 2 3 4 5 6 7 8 9 10 11 12 13 14 15 16 17 18 19 20 21 22 23
000
FTAK31 PANC 071729
TAFACD
TAF
PACD 071729Z 0718/0818 34022G30KT P6SM -SHSN SCT015 OVC030
      TEMPO 0718/0722 2SM -SHSN BR BKN015 OVC030
     FM072200 34018G28KT P6SM -SHSN SCT015 OVC030
      TEMPO 0722/0802 2SM -SHSN BR BKN015 OVC030
     FM080700 35012KT P6SM -SHSN SCT025 OVC035=

USA.gov is the U.S. government's official web portal to all federal, state and local government web resources and services.